Time,TemperatureF,DewpointF,PressureIn,WindDirection,WindDirectionDegrees,WindSpeedMPH,WindSpeedGustMPH,Humidity,HourlyPrecipIn,Conditions,Clouds,dailyrainin,SolarRadiationWatts/m^2,SoftwareType,DateUTC
2013-09-08 00:02:00,82.9,67.6,30.01,WSW,248,0.0,0.2,60,0.00,CLR,,0.00,0.0,WeatherDisplay:10.37,2013-09-08 05:02:00,
2013-09-08 00:07:00,82.9,67.6,30.01,WSW,248,0.0,0.2,60,0.00,CLR,,0.00,0.0,WeatherDisplay:10.37,2013-09-08 05:07:00,
2013-09-08 00:12:00,82.6,67.8,30.00,SSE,158,0.0,0.1,61,0.00,CLR,,0.00,0.0,WeatherDisplay:10.37,2013-09-08 05:12:00,
2013-09-08 00:17:00,82.6,67.8,30.00,South,180,1.6,1.6,61,0.00,CLR,,0.00,0.0,WeatherDisplay:10.37,2013-09-08 05:17:00,
2013-09-08 00:22:00,82.6,67.8,30.00,SSE,158,1.2,1.2,61,0.00,CLR,,0.00,0.0,WeatherDisplay:10.37,2013-09-08 05:22:00,
2013-09-08 00:27:00,82.2,67.4,30.00,SSE,158,1.2,1.2,61,0.00,CLR,,0.00,0.0,WeatherDisplay:10.37,2013-09-08 05:27:00,
2013-09-08 00:32:00,82.0,67.3,30.00,SSE,158,2.3,2.3,61,0.00,CLR,,0.00,0.0,WeatherDisplay:10.37,2013-09-08 05:32:00,
2013-09-08 00:37:00,82.2,67.9,30.00,West,270,2.3,2.3,62,0.00,CLR,,0.00,0.0,WeatherDisplay:10.37,2013-09-08 05:37:00,
2013-09-08 00:42:00,81.9,67.6,30.00,SSE,158,1.2,1.2,62,0.00,CLR,,0.00,0.0,WeatherDisplay:10.37,2013-09-08 05:42:00,
2013-09-08 00:47:00,81.7,67.4,30.00,SSE,158,2.3,2.3,62,0.00,CLR,,0.00,0.0,WeatherDisplay:10.37,2013-09-08 05:47:00,
2013-09-08 00:52:00,81.7,67.4,30.00,ESE,112,2.3,2.3,62,0.00,CLR,,0.00,0.0,WeatherDisplay:10.37,2013-09-08 05:52:00,
2013-09-08 00:57:00,81.5,67.2,30.00,SE,135,3.9,3.9,62,0.00,CLR,,0.00,0.0,WeatherDisplay:10.37,2013-09-08 05:57:00,
2013-09-08 01:02:00,81.3,67.5,30.00,SSE,158,5.1,5.1,63,0.00,CLR,,0.00,0.0,WeatherDisplay:10.37,2013-09-08 06:02:00,
2013-09-08 01:07:00,81.5,67.7,30.00,SSE,158,6.9,6.9,63,0.00,CLR,,0.00,0.0,WeatherDisplay:10.37,2013-09-08 06:07:00,
2013-09-08 01:12:00,81.1,67.3,30.01,ESE,112,6.9,6.9,63,0.00,CLR,,0.00,0.0,WeatherDisplay:10.37,2013-09-08 06:12:00,
2013-09-08 01:17:00,81.0,67.6,30.01,SE,135,4.6,4.6,64,0.00,CLR,,0.00,0.0,WeatherDisplay:10.37,2013-09-08 06:17:00,
2013-09-08 01:22:00,81.0,67.6,30.01,SE,135,3.8,3.8,64,0.00,CLR,,0.00,0.0,WeatherDisplay:10.37,2013-09-08 06:22:00,
2013-09-08 01:27:00,80.8,67.5,30.01,SW,225,4.6,4.6,64,0.00,CLR,,0.00,0.0,WeatherDisplay:10.37,2013-09-08 06:27:00,
2013-09-08 01:32:00,80.8,67.5,30.01,SSE,158,4.9,4.9,64,0.00,CLR,,0.00,0.0,WeatherDisplay:10.37,2013-09-08 06:32:00,
2013-09-08 01:37:00,80.4,67.6,30.01,NNE,22,2.3,2.3,65,0.00,CLR,,0.00,0.0,WeatherDisplay:10.37,2013-09-08 06:37:00,
2013-09-08 01:42:00,80.2,67.4,30.01,South,180,1.2,2.0,65,0.00,CLR,,0.00,0.0,WeatherDisplay:10.37,2013-09-08 06:42:00,
2013-09-08 01:47:00,80.2,67.4,30.01,SSW,202,1.2,1.3,65,0.00,CLR,,0.00,0.0,WeatherDisplay:10.37,2013-09-08 06:47:00,
2013-09-08 01:52:00,80.2,67.8,30.01,South,180,0.0,0.3,66,0.00,CLR,,0.00,0.0,WeatherDisplay:10.37,2013-09-08 06:52:00,
2013-09-08 01:57:00,80.1,67.7,30.01,SSE,158,0.0,0.2,66,0.00,CLR,,0.00,0.0,WeatherDisplay:10.37,2013-09-08 06:57:00,
2013-09-08 02:02:00,80.1,67.7,30.01,SW,225,0.0,0.1,66,0.00,CLR,,0.00,0.0,WeatherDisplay:10.37,2013-09-08 07:02:00,
2013-09-08 02:07:00,80.1,67.7,30.01,South,180,2.3,2.3,66,0.00,CLR,,0.00,0.0,WeatherDisplay:10.37,2013-09-08 07:07:00,
2013-09-08 02:12:00,80.1,68.1,30.00,SSE,158,2.4,2.4,67,0.00,CLR,,0.00,0.0,WeatherDisplay:10.37,2013-09-08 07:12:00,
2013-09-08 02:17:00,79.7,67.8,30.00,SE,135,2.3,2.3,67,0.00,CLR,,0.00,0.0,WeatherDisplay:10.37,2013-09-08 07:17:00,
2013-09-08 02:22:00,79.7,67.8,30.00,SSE,158,1.2,1.2,67,0.00,CLR,,0.00,0.0,WeatherDisplay:10.37,2013-09-08 07:22:00,
2013-09-08 02:27:00,79.5,67.6,30.00,SSE,158,2.3,2.3,67,0.00,CLR,,0.00,0.0,WeatherDisplay:10.37,2013-09-08 07:27:00,
2013-09-08 02:32:00,79.5,67.6,30.01,SSE,158,2.3,2.3,67,0.00,CLR,,0.00,0.0,WeatherDisplay:10.37,2013-09-08 07:32:00,
2013-09-08 02:37:00,79.3,67.4,30.01,SE,135,3.5,3.5,67,0.00,CLR,,0.00,0.0,WeatherDisplay:10.37,2013-09-08 07:37:00,
2013-09-08 02:42:00,79.2,67.7,30.01,South,180,3.5,3.5,68,0.00,CLR,,0.00,0.0,WeatherDisplay:10.37,2013-09-08 07:42:00,
2013-09-08 02:47:00,79.2,67.7,30.01,SSE,158,2.3,2.3,68,0.00,CLR,,0.00,0.0,WeatherDisplay:10.37,2013-09-08 07:47:00,
2013-09-08 02:52:00,79.0,67.5,30.00,SW,225,1.2,1.5,68,0.00,CLR,,0.00,0.0,WeatherDisplay:10.37,2013-09-08 07:52:00,
2013-09-08 02:57:00,78.8,67.3,30.00,SW,225,4.6,4.6,68,0.00,CLR,,0.00,0.0,WeatherDisplay:10.37,2013-09-08 07:57:00,
2013-09-08 03:02:00,79.0,67.9,30.00,South,180,1.2,1.2,69,0.00,CLR,,0.00,0.0,WeatherDisplay:10.37,2013-09-08 08:02:00,
2013-09-08 03:07:00,79.0,67.9,30.00,South,180,2.3,2.3,69,0.00,CLR,,0.00,0.0,WeatherDisplay:10.37,2013-09-08 08:07:00,
2013-09-08 03:12:00,78.4,67.4,30.01,South,180,2.3,2.3,69,0.00,CLR,,0.00,0.0,WeatherDisplay:10.37,2013-09-08 08:12:00,
2013-09-08 03:17:00,78.3,67.7,30.01,SW,225,2.3,2.3,70,0.00,CLR,,0.00,0.0,WeatherDisplay:10.37,2013-09-08 08:17:00,
2013-09-08 03:22:00,78.3,67.7,30.01,WSW,248,2.3,2.3,70,0.00,CLR,,0.00,0.0,WeatherDisplay:10.37,2013-09-08 08:22:00,
2013-09-08 03:27:00,78.1,67.5,30.01,SSE,158,1.2,1.2,70,0.00,CLR,,0.00,0.0,WeatherDisplay:10.37,2013-09-08 08:27:00,
2013-09-08 03:32:00,78.1,67.5,30.00,SSE,158,1.2,1.2,70,0.00,CLR,,0.00,0.0,WeatherDisplay:10.37,2013-09-08 08:32:00,
2013-09-08 03:37:00,77.9,67.3,30.00,South,180,1.2,1.2,70,0.00,CLR,,0.00,0.0,WeatherDisplay:10.37,2013-09-08 08:37:00,
2013-09-08 03:42:00,77.9,67.7,30.00,South,180,0.0,0.2,71,0.00,CLR,,0.00,0.0,WeatherDisplay:10.37,2013-09-08 08:42:00,
2013-09-08 03:47:00,77.9,67.7,30.00,South,180,0.0,0.0,71,0.00,CLR,,0.00,0.0,WeatherDisplay:10.37,2013-09-08 08:47:00,
2013-09-08 03:52:00,77.9,67.7,30.00,SSE,158,1.2,1.2,71,0.00,CLR,,0.00,0.0,WeatherDisplay:10.37,2013-09-08 08:52:00,
2013-09-08 03:57:00,77.7,67.6,30.00,SE,135,1.2,1.2,71,0.00,CLR,,0.00,0.0,WeatherDisplay:10.37,2013-09-08 08:57:00,
2013-09-08 04:02:00,77.5,67.4,30.00,South,180,0.0,0.3,71,0.00,CLR,,0.00,0.0,WeatherDisplay:10.37,2013-09-08 09:02:00,
2013-09-08 04:07:00,77.4,67.2,30.00,SSE,158,0.0,0.3,71,0.00,CLR,,0.00,0.0,WeatherDisplay:10.37,2013-09-08 09:07:00,
2013-09-08 04:12:00,77.5,67.4,30.00,SSE,158,0.0,0.1,71,0.00,CLR,,0.00,0.0,WeatherDisplay:10.37,2013-09-08 09:12:00,
2013-09-08 04:17:00,77.5,67.8,30.00,SSE,158,0.0,0.1,72,0.00,CLR,,0.00,0.0,WeatherDisplay:10.37,2013-09-08 09:17:00,
2013-09-08 04:22:00,77.2,67.5,30.00,SSE,158,0.0,0.1,72,0.00,CLR,,0.00,0.0,WeatherDisplay:10.37,2013-09-08 09:22:00,
2013-09-08 04:28:00,77.0,67.3,30.00,SW,225,0.0,0.0,72,0.00,CLR,,0.00,0.0,WeatherDisplay:10.37,2013-09-08 09:28:00,
2013-09-08 04:33:00,77.0,67.3,29.99,SW,225,0.0,0.0,72,0.00,CLR,,0.00,0.0,WeatherDisplay:10.37,2013-09-08 09:33:00,
2013-09-08 04:38:00,76.8,67.5,29.99,SW,225,0.0,0.0,73,0.00,CLR,,0.00,0.0,WeatherDisplay:10.37,2013-09-08 09:38:00,
2013-09-08 04:43:00,76.8,67.5,29.99,South,180,0.0,0.0,73,0.00,CLR,,0.00,0.0,WeatherDisplay:10.37,2013-09-08 09:43:00,
2013-09-08 04:48:00,76.6,67.3,29.99,SE,135,0.0,0.0,73,0.00,CLR,,0.00,0.0,WeatherDisplay:10.37,2013-09-08 09:48:00,
2013-09-08 04:53:00,76.6,67.7,30.00,SSE,158,0.0,0.1,74,0.00,CLR,,0.00,0.0,WeatherDisplay:10.37,2013-09-08 09:53:00,
2013-09-08 04:58:00,76.6,67.7,30.00,SSE,158,0.0,0.1,74,0.00,CLR,,0.00,0.0,WeatherDisplay:10.37,2013-09-08 09:58:00,
2013-09-08 05:03:00,76.6,67.7,30.00,SSE,158,0.0,0.0,74,0.00,CLR,,0.00,0.0,WeatherDisplay:10.37,2013-09-08 10:03:00,
2013-09-08 05:08:00,76.5,67.6,30.00,SSE,158,0.0,0.0,74,0.00,CLR,,0.00,0.0,WeatherDisplay:10.37,2013-09-08 10:08:00,
2013-09-08 05:13:00,76.5,67.6,30.00,SE,135,0.0,0.0,74,0.00,CLR,,0.00,0.0,WeatherDisplay:10.37,2013-09-08 10:13:00,
2013-09-08 05:18:00,76.3,67.4,30.00,NE,45,0.0,0.0,74,0.00,CLR,,0.00,0.0,WeatherDisplay:10.37,2013-09-08 10:18:00,
2013-09-08 05:23:00,76.1,67.2,30.00,NE,45,0.0,0.0,74,0.00,CLR,,0.00,0.0,WeatherDisplay:10.37,2013-09-08 10:23:00,
2013-09-08 05:28:00,75.9,67.4,30.00,NE,45,0.0,0.0,75,0.00,CLR,,0.00,0.0,WeatherDisplay:10.37,2013-09-08 10:28:00,
2013-09-08 05:33:00,75.9,67.4,30.00,NE,45,0.0,0.0,75,0.00,CLR,,0.00,0.0,WeatherDisplay:10.37,2013-09-08 10:33:00,
2013-09-08 05:38:00,75.9,67.4,30.00,NE,45,0.0,0.0,75,0.00,CLR,,0.00,0.0,WeatherDisplay:10.37,2013-09-08 10:38:00,
2013-09-08 05:43:00,75.7,67.2,30.00,NE,45,0.0,0.0,75,0.00,CLR,,0.00,0.0,WeatherDisplay:10.37,2013-09-08 10:43:00,
2013-09-08 05:48:00,75.7,67.6,30.01,NE,45,0.0,0.0,76,0.00,CLR,,0.00,0.0,WeatherDisplay:10.37,2013-09-08 10:48:00,
2013-09-08 05:53:00,75.7,67.6,30.01,NE,45,0.0,0.0,76,0.00,CLR,,0.00,0.0,WeatherDisplay:10.37,2013-09-08 10:53:00,
2013-09-08 05:58:00,75.6,67.5,30.01,NE,45,0.0,0.0,76,0.00,CLR,,0.00,0.0,WeatherDisplay:10.37,2013-09-08 10:58:00,
2013-09-08 06:03:00,75.7,67.6,30.01,NE,45,0.0,0.0,76,0.00,CLR,,0.00,0.0,WeatherDisplay:10.37,2013-09-08 11:03:00,
2013-09-08 06:08:00,75.7,67.6,30.00,NE,45,0.0,0.0,76,0.00,CLR,,0.00,0.0,WeatherDisplay:10.37,2013-09-08 11:08:00,
2013-09-08 06:13:00,75.4,67.3,30.00,NE,45,0.0,0.0,76,0.00,CLR,,0.00,0.0,WeatherDisplay:10.37,2013-09-08 11:13:00,
2013-09-08 06:18:00,75.4,67.3,30.00,SSE,158,0.0,0.0,76,0.00,CLR,,0.00,0.0,WeatherDisplay:10.37,2013-09-08 11:18:00,
2013-09-08 06:23:00,75.2,67.1,30.00,SSE,158,0.0,0.0,76,0.00,CLR,,0.00,0.0,WeatherDisplay:10.37,2013-09-08 11:23:00,
2013-09-08 06:28:00,75.2,67.5,30.01,NNE,22,0.0,0.0,77,0.00,CLR,,0.00,0.0,WeatherDisplay:10.37,2013-09-08 11:28:00,
2013-09-08 06:33:00,75.4,67.7,30.01,NNW,338,0.0,0.0,77,0.00,CLR,,0.00,0.0,WeatherDisplay:10.37,2013-09-08 11:33:00,
2013-09-08 06:38:00,75.2,67.5,30.01,ESE,112,0.0,0.0,77,0.00,CLR,,0.00,0.0,WeatherDisplay:10.37,2013-09-08 11:38:00,
2013-09-08 06:43:00,75.4,68.0,30.01,East,90,0.0,0.0,78,0.00,CLR,,0.00,0.0,WeatherDisplay:10.37,2013-09-08 11:43:00,
2013-09-08 06:48:00,75.4,68.0,30.02,ESE,112,0.0,0.0,78,0.00,CLR,,0.00,0.0,WeatherDisplay:10.37,2013-09-08 11:48:00,
2013-09-08 06:53:00,75.4,68.0,30.02,ESE,112,0.0,0.0,78,0.00,CLR,,0.00,0.0,WeatherDisplay:10.37,2013-09-08 11:53:00,
2013-09-08 06:58:00,75.4,68.0,30.02,ESE,112,0.0,0.0,78,0.00,CLR,,0.00,0.0,WeatherDisplay:10.37,2013-09-08 11:58:00,
2013-09-08 07:03:00,75.2,67.9,30.02,ESE,112,0.0,0.0,78,0.00,OVC,,0.00,0.0,WeatherDisplay:10.37,2013-09-08 12:03:00,
2013-09-08 07:08:00,75.0,67.7,30.00,ESE,112,0.0,0.0,78,0.00,OVC,,0.00,0.0,WeatherDisplay:10.37,2013-09-08 12:08:00,
2013-09-08 07:13:00,75.0,68.1,30.00,ESE,112,0.0,0.0,79,0.00,OVC,,0.00,0.0,WeatherDisplay:10.37,2013-09-08 12:13:00,
2013-09-08 07:18:00,75.0,68.1,30.00,ESE,112,0.0,0.0,79,0.00,OVC,,0.00,0.0,WeatherDisplay:10.37,2013-09-08 12:18:00,
2013-09-08 07:23:00,74.8,67.9,30.00,ESE,112,0.0,0.0,79,0.00,OVC,,0.00,0.0,WeatherDisplay:10.37,2013-09-08 12:23:00,
2013-09-08 07:28:00,75.0,68.1,30.02,ESE,112,0.0,0.0,79,0.00,OVC,,0.00,0.0,WeatherDisplay:10.37,2013-09-08 12:28:00,
2013-09-08 07:33:00,75.0,68.1,30.02,ESE,112,0.0,0.0,79,0.00,OVC,,0.00,0.0,WeatherDisplay:10.37,2013-09-08 12:33:00,
2013-09-08 07:38:00,75.2,68.2,30.02,ESE,112,0.0,0.0,79,0.00,OVC,,0.00,0.0,WeatherDisplay:10.37,2013-09-08 12:38:00,
2013-09-08 07:43:00,75.2,68.2,30.02,ESE,112,0.0,0.0,79,0.00,OVC,,0.00,0.0,WeatherDisplay:10.37,2013-09-08 12:43:00,
2013-09-08 07:48:00,75.2,68.6,30.02,ESE,112,0.0,0.1,80,0.00,OVC,,0.00,0.0,WeatherDisplay:10.37,2013-09-08 12:48:00,
2013-09-08 07:53:00,75.4,68.4,30.02,ESE,112,2.9,2.9,79,0.00,OVC,,0.00,0.0,WeatherDisplay:10.37,2013-09-08 12:53:00,
2013-09-08 07:58:00,75.6,68.6,30.02,ESE,112,2.3,2.3,79,0.00,OVC,,0.00,0.0,WeatherDisplay:10.37,2013-09-08 12:58:00,
2013-09-08 08:03:00,75.6,68.6,30.02,SE,135,2.3,2.3,79,0.00,OVC,,0.00,0.0,WeatherDisplay:10.37,2013-09-08 13:03:00,
2013-09-08 08:08:00,75.7,69.1,30.02,ESE,112,0.0,0.8,80,0.00,OVC,,0.00,0.0,WeatherDisplay:10.37,2013-09-08 13:08:00,
2013-09-08 08:13:00,76.1,69.5,30.02,ESE,112,1.2,1.2,80,0.00,OVC,,0.00,0.0,WeatherDisplay:10.37,2013-09-08 13:13:00,
2013-09-08 08:18:00,76.1,69.8,30.02,SE,135,1.2,1.2,81,0.00,OVC,,0.00,0.0,WeatherDisplay:10.37,2013-09-08 13:18:00,
2013-09-08 08:23:00,76.1,69.8,30.02,SE,135,0.0,0.2,81,0.00,OVC,,0.00,0.0,WeatherDisplay:10.37,2013-09-08 13:23:00,
2013-09-08 08:28:00,76.3,70.0,30.02,ESE,112,0.0,0.2,81,0.00,OVC,,0.00,0.0,WeatherDisplay:10.37,2013-09-08 13:28:00,
2013-09-08 08:33:00,76.5,70.2,30.02,ESE,112,0.0,0.3,81,0.00,OVC,,0.00,0.0,WeatherDisplay:10.37,2013-09-08 13:33:00,
2013-09-08 08:38:00,76.5,69.8,30.02,SE,135,1.2,1.2,80,0.00,OVC,,0.00,0.0,WeatherDisplay:10.37,2013-09-08 13:38:00,
2013-09-08 08:43:00,76.5,69.8,30.02,South,180,0.0,0.3,80,0.00,OVC,,0.00,0.0,WeatherDisplay:10.37,2013-09-08 13:43:00,
2013-09-08 08:48:00,76.8,70.2,30.01,ESE,112,0.0,0.2,80,0.00,OVC,,0.00,0.0,WeatherDisplay:10.37,2013-09-08 13:48:00,
2013-09-08 08:53:00,76.8,70.5,30.01,SE,135,0.0,0.0,81,0.00,OVC,,0.00,0.0,WeatherDisplay:10.37,2013-09-08 13:53:00,
2013-09-08 08:58:00,77.0,70.4,30.01,NNE,22,0.0,0.0,80,0.00,OVC,,0.00,0.0,WeatherDisplay:10.37,2013-09-08 13:58:00,
2013-09-08 09:03:00,77.2,70.9,30.01,WNW,292,0.0,0.0,81,0.00,OVC,,0.00,0.0,WeatherDisplay:10.37,2013-09-08 14:03:00,
2013-09-08 09:08:00,77.4,70.7,30.03,SW,225,0.0,0.0,80,0.00,OVC,,0.00,0.0,WeatherDisplay:10.37,2013-09-08 14:08:00,
2013-09-08 09:13:00,77.5,70.9,30.03,WSW,248,0.0,0.0,80,0.00,OVC,,0.00,0.0,WeatherDisplay:10.37,2013-09-08 14:13:00,
2013-09-08 09:18:00,77.9,71.2,30.03,NNW,338,0.0,0.0,80,0.00,OVC,,0.00,0.0,WeatherDisplay:10.37,2013-09-08 14:18:00,
2013-09-08 09:23:00,78.1,71.0,30.03,SSW,202,0.0,0.0,79,0.00,OVC,,0.00,0.0,WeatherDisplay:10.37,2013-09-08 14:23:00,
2013-09-08 09:28:00,78.4,71.4,30.02,SSW,202,0.0,0.0,79,0.00,OVC,,0.00,0.0,WeatherDisplay:10.37,2013-09-08 14:28:00,
2013-09-08 09:33:00,78.6,71.6,30.02,WSW,248,0.0,0.0,79,0.00,OVC,,0.00,0.0,WeatherDisplay:10.37,2013-09-08 14:33:00,
2013-09-08 09:38:00,78.8,71.7,30.02,South,180,0.0,0.0,79,0.00,OVC,,0.00,0.0,WeatherDisplay:10.37,2013-09-08 14:38:00,
2013-09-08 09:43:00,79.3,71.9,30.02,WSW,248,0.0,0.0,78,0.00,OVC,,0.00,0.0,WeatherDisplay:10.37,2013-09-08 14:43:00,
2013-09-08 09:49:00,79.5,71.7,30.02,SSE,158,1.3,0.0,77,0.00,OVC,,0.00,0.0,WeatherDisplay:10.37,2013-09-08 14:49:00,
2013-09-08 09:54:00,79.9,72.0,30.02,SW,225,0.0,0.0,77,0.00,OVC,,0.00,0.0,WeatherDisplay:10.37,2013-09-08 14:54:00,
2013-09-08 09:59:00,79.9,71.6,30.02,SE,135,2.3,2.3,76,0.00,OVC,,0.00,0.0,WeatherDisplay:10.37,2013-09-08 14:59:00,
2013-09-08 10:04:00,80.4,72.2,30.02,SSE,158,1.2,1.2,76,0.00,OVC,,0.00,0.0,WeatherDisplay:10.37,2013-09-08 15:04:00,
2013-09-08 10:09:00,80.8,72.1,30.02,South,180,0.0,0.6,75,0.00,OVC,,0.00,0.0,WeatherDisplay:10.37,2013-09-08 15:09:00,
2013-09-08 10:14:00,81.0,71.9,30.02,South,180,1.2,1.2,74,0.00,OVC,,0.00,0.0,WeatherDisplay:10.37,2013-09-08 15:14:00,
2013-09-08 10:19:00,81.0,71.9,30.02,ESE,112,1.5,1.5,74,0.00,OVC,,0.00,0.0,WeatherDisplay:10.37,2013-09-08 15:19:00,
2013-09-08 10:24:00,81.5,72.4,30.02,ENE,68,3.5,3.5,74,0.00,OVC,,0.00,0.0,WeatherDisplay:10.37,2013-09-08 15:24:00,
2013-09-08 10:29:00,81.7,72.6,30.03,SE,135,3.5,3.5,74,0.00,OVC,,0.00,0.0,WeatherDisplay:10.37,2013-09-08 15:29:00,
2013-09-08 10:34:00,81.9,72.4,30.03,SSE,158,2.3,2.3,73,0.00,OVC,,0.00,0.0,WeatherDisplay:10.37,2013-09-08 15:34:00,
2013-09-08 10:39:00,82.0,72.1,30.03,East,90,0.0,1.8,72,0.00,OVC,,0.00,0.0,WeatherDisplay:10.37,2013-09-08 15:39:00,
2013-09-08 10:44:00,82.2,71.9,30.03,ESE,112,4.6,4.6,71,0.00,OVC,,0.00,0.0,WeatherDisplay:10.37,2013-09-08 15:44:00,
2013-09-08 10:49:00,82.6,72.2,30.03,NNW,338,2.3,2.3,71,0.00,OVC,,0.00,0.0,WeatherDisplay:10.37,2013-09-08 15:49:00,
2013-09-08 10:54:00,82.9,72.1,30.03,ESE,112,6.9,6.9,70,0.00,OVC,,0.00,30.0,WeatherDisplay:10.37,2013-09-08 15:54:00,
2013-09-08 10:59:00,82.9,71.3,30.03,SE,135,3.5,3.5,68,0.00,OVC,,0.00,30.0,WeatherDisplay:10.37,2013-09-08 15:59:00,
2013-09-08 11:04:00,83.1,71.0,30.03,SW,225,2.3,2.3,67,0.00,OVC,,0.00,30.0,WeatherDisplay:10.37,2013-09-08 16:04:00,
2013-09-08 11:09:00,83.3,71.6,30.03,SSE,158,4.6,4.6,68,0.00,OVC,,0.00,30.0,WeatherDisplay:10.37,2013-09-08 16:09:00,
2013-09-08 11:14:00,83.7,71.5,30.03,SE,135,4.6,4.6,67,0.00,OVC,,0.00,30.0,WeatherDisplay:10.37,2013-09-08 16:14:00,
2013-09-08 11:19:00,83.8,71.7,30.03,South,180,4.6,4.6,67,0.00,OVC,,0.00,30.0,WeatherDisplay:10.37,2013-09-08 16:19:00,
2013-09-08 11:24:00,84.4,71.3,30.03,SE,135,8.1,8.1,65,0.00,OVC,,0.00,20.0,WeatherDisplay:10.37,2013-09-08 16:24:00,
2013-09-08 11:29:00,84.7,71.7,30.02,SSE,158,6.9,6.9,65,0.00,OVC,,0.00,20.0,WeatherDisplay:10.37,2013-09-08 16:29:00,
2013-09-08 11:34:00,84.9,71.4,30.02,South,180,5.8,5.8,64,0.00,OVC,,0.00,20.0,WeatherDisplay:10.37,2013-09-08 16:34:00,
2013-09-08 11:39:00,85.1,71.1,30.02,SE,135,3.5,3.5,63,0.00,OVC,,0.00,20.0,WeatherDisplay:10.37,2013-09-08 16:39:00,
2013-09-08 11:44:00,85.1,70.6,30.02,SSE,158,6.9,6.9,62,0.00,OVC,,0.00,20.0,WeatherDisplay:10.37,2013-09-08 16:44:00,
2013-09-08 11:49:00,85.5,71.4,30.02,SE,135,3.5,3.5,63,0.00,OVC,,0.00,20.0,WeatherDisplay:10.37,2013-09-08 16:49:00,
2013-09-08 11:54:00,85.6,71.1,30.02,WNW,292,5.8,5.8,62,0.00,OVC,,0.00,20.0,WeatherDisplay:10.37,2013-09-08 16:54:00,
2013-09-08 11:59:00,85.8,71.3,30.02,East,90,6.0,6.0,62,0.00,OVC,,0.00,20.0,WeatherDisplay:10.37,2013-09-08 16:59:00,
2013-09-08 12:04:00,86.0,71.0,30.02,SE,135,4.6,4.6,61,0.00,OVC,,0.00,20.0,WeatherDisplay:10.37,2013-09-08 17:04:00,
2013-09-08 12:09:00,86.0,71.0,30.02,SE,135,4.6,4.6,61,0.00,CLR,,0.00,20.0,WeatherDisplay:10.37,2013-09-08 17:09:00,
2013-09-08 12:14:00,86.5,71.0,30.02,South,180,8.1,8.1,60,0.00,CLR,,0.00,20.0,WeatherDisplay:10.37,2013-09-08 17:14:00,
2013-09-08 12:19:00,86.7,70.7,30.02,ESE,112,4.6,4.6,59,0.00,SCT,,0.00,20.0,WeatherDisplay:10.37,2013-09-08 17:19:00,
2013-09-08 12:24:00,87.3,71.2,30.02,SE,135,6.9,6.9,59,0.00,BKN,,0.00,20.0,WeatherDisplay:10.37,2013-09-08 17:24:00,
2013-09-08 12:29:00,87.3,70.7,30.00,SSE,158,6.9,6.9,58,0.00,OVC,,0.00,20.0,WeatherDisplay:10.37,2013-09-08 17:29:00,
2013-09-08 12:34:00,87.4,70.3,30.00,South,180,5.8,5.8,57,0.00,OVC,,0.00,20.0,WeatherDisplay:10.37,2013-09-08 17:34:00,
2013-09-08 12:39:00,87.8,70.7,30.00,SSE,158,2.3,3.0,57,0.00,OVC,,0.00,20.0,WeatherDisplay:10.37,2013-09-08 17:39:00,
2013-09-08 12:44:00,88.0,70.8,30.00,ESE,112,4.6,4.6,57,0.00,OVC,,0.00,20.0,WeatherDisplay:10.37,2013-09-08 17:44:00,
2013-09-08 12:49:00,88.0,70.8,30.00,SE,135,4.6,4.6,57,0.00,OVC,,0.00,20.0,WeatherDisplay:10.37,2013-09-08 17:49:00,
2013-09-08 12:54:00,88.3,71.2,30.00,NW,315,4.6,4.6,57,0.00,OVC,,0.00,20.0,WeatherDisplay:10.37,2013-09-08 17:54:00,
2013-09-08 12:59:00,88.7,71.0,30.00,ESE,112,2.8,2.8,56,0.00,OVC,,0.00,20.0,WeatherDisplay:10.37,2013-09-08 17:59:00,
2013-09-08 13:04:00,89.1,70.8,30.00,SE,135,5.8,5.8,55,0.00,OVC,,0.00,20.0,WeatherDisplay:10.37,2013-09-08 18:04:00,
2013-09-08 13:09:00,89.2,70.4,30.01,ESE,112,8.1,8.1,54,0.00,OVC,,0.00,20.0,WeatherDisplay:10.37,2013-09-08 18:09:00,
2013-09-08 13:14:00,89.4,70.6,30.01,South,180,3.5,3.8,54,0.00,OVC,,0.00,20.0,WeatherDisplay:10.37,2013-09-08 18:14:00,
2013-09-08 13:19:00,89.2,69.3,30.01,ESE,112,6.9,6.9,52,0.00,OVC,,0.00,20.0,WeatherDisplay:10.37,2013-09-08 18:19:00,
2013-09-08 13:24:00,89.2,69.9,30.01,SSE,158,6.9,6.9,53,0.00,OVC,,0.00,20.0,WeatherDisplay:10.37,2013-09-08 18:24:00,
2013-09-08 13:29:00,89.4,70.0,29.99,ESE,112,8.4,8.4,53,0.00,OVC,,0.00,10.0,WeatherDisplay:10.37,2013-09-08 18:29:00,
2013-09-08 13:34:00,89.8,70.4,29.99,SE,135,5.8,5.8,53,0.00,OVC,,0.00,20.0,WeatherDisplay:10.37,2013-09-08 18:34:00,
2013-09-08 13:39:00,90.1,70.7,29.99,SE,135,5.8,5.8,53,0.00,OVC,,0.00,20.0,WeatherDisplay:10.37,2013-09-08 18:39:00,
2013-09-08 13:44:00,90.1,70.1,29.99,ESE,112,4.6,4.6,52,0.00,OVC,,0.00,20.0,WeatherDisplay:10.37,2013-09-08 18:44:00,
2013-09-08 13:49:00,90.1,70.1,29.99,ENE,68,6.9,6.9,52,0.00,OVC,,0.00,20.0,WeatherDisplay:10.37,2013-09-08 18:49:00,
2013-09-08 13:54:00,90.1,70.1,29.99,East,90,6.9,6.9,52,0.00,OVC,,0.00,10.0,WeatherDisplay:10.37,2013-09-08 18:54:00,
2013-09-08 13:59:00,90.5,69.9,29.99,SE,135,5.8,5.8,51,0.00,OVC,,0.00,20.0,WeatherDisplay:10.37,2013-09-08 18:59:00,
2013-09-08 14:04:00,90.7,70.1,29.99,SSE,158,2.3,3.8,51,0.00,OVC,,0.00,20.0,WeatherDisplay:10.37,2013-09-08 19:04:00,
2013-09-08 14:09:00,90.9,70.2,29.98,SE,135,6.9,6.9,51,0.00,OVC,,0.00,20.0,WeatherDisplay:10.37,2013-09-08 19:09:00,
2013-09-08 14:14:00,91.0,69.8,29.98,SSE,158,3.5,3.6,50,0.00,OVC,,0.00,20.0,WeatherDisplay:10.37,2013-09-08 19:14:00,
2013-09-08 14:19:00,91.0,69.8,29.98,ESE,112,6.9,6.9,50,0.00,OVC,,0.00,20.0,WeatherDisplay:10.37,2013-09-08 19:19:00,
2013-09-08 14:24:00,91.4,69.0,29.98,East,90,5.8,5.8,48,0.00,OVC,,0.00,20.0,WeatherDisplay:10.37,2013-09-08 19:24:00,
2013-09-08 14:29:00,91.6,69.7,29.98,ESE,112,8.1,8.1,49,0.00,OVC,,0.00,20.0,WeatherDisplay:10.37,2013-09-08 19:29:00,
2013-09-08 14:34:00,91.8,69.3,29.98,SE,135,6.9,6.9,48,0.00,OVC,,0.00,20.0,WeatherDisplay:10.37,2013-09-08 19:34:00,
2013-09-08 14:39:00,91.8,69.3,29.98,ESE,112,6.0,6.0,48,0.00,OVC,,0.00,20.0,WeatherDisplay:10.37,2013-09-08 19:39:00,
2013-09-08 14:44:00,92.3,69.2,29.98,South,180,6.9,6.9,47,0.00,OVC,,0.00,20.0,WeatherDisplay:10.37,2013-09-08 19:44:00,
2013-09-08 14:49:00,92.3,69.2,29.96,South,180,5.1,5.1,47,0.00,OVC,,0.00,10.0,WeatherDisplay:10.37,2013-09-08 19:49:00,
2013-09-08 14:54:00,92.5,68.7,29.96,SW,225,4.6,4.6,46,0.00,OVC,,0.00,20.0,WeatherDisplay:10.37,2013-09-08 19:54:00,
2013-09-08 14:59:00,92.3,68.5,29.96,South,180,6.9,6.9,46,0.00,OVC,,0.00,20.0,WeatherDisplay:10.37,2013-09-08 19:59:00,
2013-09-08 15:04:00,92.5,68.7,29.96,SE,135,3.0,3.5,46,0.00,OVC,,0.00,20.0,WeatherDisplay:10.37,2013-09-08 20:04:00,
2013-09-08 15:09:00,92.7,68.2,29.96,ENE,68,6.9,6.9,45,0.00,OVC,,0.00,30.0,WeatherDisplay:10.37,2013-09-08 20:09:00,
2013-09-08 15:14:00,93.0,68.5,29.96,ESE,112,5.3,5.3,45,0.00,OVC,,0.00,20.0,WeatherDisplay:10.37,2013-09-08 20:14:00,
2013-09-08 15:19:00,92.8,69.0,29.96,SSE,158,5.8,5.8,46,0.00,OVC,,0.00,20.0,WeatherDisplay:10.37,2013-09-08 20:19:00,
2013-09-08 15:24:00,93.0,68.5,29.96,SSE,158,8.1,8.1,45,0.00,OVC,,0.00,30.0,WeatherDisplay:10.37,2013-09-08 20:24:00,
2013-09-08 15:29:00,92.8,68.4,29.95,ENE,68,5.8,5.8,45,0.00,OVC,,0.00,30.0,WeatherDisplay:10.37,2013-09-08 20:29:00,
2013-09-08 15:35:00,93.0,67.9,29.95,SE,135,4.6,4.6,44,0.00,OVC,,0.00,20.0,WeatherDisplay:10.37,2013-09-08 20:35:00,
2013-09-08 15:40:00,93.2,68.0,29.95,NW,315,5.8,5.8,44,0.00,OVC,,0.00,20.0,WeatherDisplay:10.37,2013-09-08 20:40:00,
2013-09-08 15:45:00,93.2,68.0,29.95,ESE,112,6.9,6.9,44,0.00,OVC,,0.00,20.0,WeatherDisplay:10.37,2013-09-08 20:45:00,
2013-09-08 15:50:00,93.2,68.0,29.94,ENE,68,2.3,2.6,44,0.00,OVC,,0.00,20.0,WeatherDisplay:10.37,2013-09-08 20:50:00,
2013-09-08 15:55:00,93.0,67.2,29.94,ESE,112,8.3,8.3,43,0.00,OVC,,0.00,20.0,WeatherDisplay:10.37,2013-09-08 20:55:00,
2013-09-08 16:00:00,93.2,67.4,29.94,SE,135,3.5,4.8,43,0.00,OVC,,0.00,20.0,WeatherDisplay:10.37,2013-09-08 21:00:00,
2013-09-08 16:05:00,93.2,66.7,29.94,East,90,6.9,6.9,42,0.00,OVC,,0.00,10.0,WeatherDisplay:10.37,2013-09-08 21:05:00,
2013-09-08 16:10:00,93.4,67.5,29.93,SW,225,3.7,4.9,43,0.00,OVC,,0.00,10.0,WeatherDisplay:10.37,2013-09-08 21:10:00,
2013-09-08 16:15:00,93.7,67.9,29.93,SSE,158,5.8,5.8,43,0.00,OVC,,0.00,20.0,WeatherDisplay:10.37,2013-09-08 21:15:00,
2013-09-08 16:20:00,93.6,67.0,29.93,SE,135,7.1,7.1,42,0.00,OVC,,0.00,20.0,WeatherDisplay:10.37,2013-09-08 21:20:00,
2013-09-08 16:25:00,93.4,66.9,29.93,ESE,112,5.8,5.8,42,0.00,OVC,,0.00,20.0,WeatherDisplay:10.37,2013-09-08 21:25:00,
2013-09-08 16:30:00,93.6,67.0,29.93,South,180,5.8,5.8,42,0.00,OVC,,0.00,20.0,WeatherDisplay:10.37,2013-09-08 21:30:00,
2013-09-08 16:35:00,93.6,67.7,29.93,South,180,6.9,6.9,43,0.00,OVC,,0.00,20.0,WeatherDisplay:10.37,2013-09-08 21:35:00,
2013-09-08 16:40:00,93.7,67.2,29.93,ESE,112,6.9,6.9,42,0.00,OVC,,0.00,20.0,WeatherDisplay:10.37,2013-09-08 21:40:00,
2013-09-08 16:45:00,93.7,67.2,29.93,SSE,158,6.9,6.9,42,0.00,OVC,,0.00,20.0,WeatherDisplay:10.37,2013-09-08 21:45:00,
2013-09-08 16:50:00,93.9,68.0,29.92,SW,225,2.3,3.9,43,0.00,OVC,,0.00,20.0,WeatherDisplay:10.37,2013-09-08 21:50:00,
2013-09-08 16:55:00,93.9,68.0,29.92,South,180,4.6,4.6,43,0.00,OVC,,0.00,20.0,WeatherDisplay:10.37,2013-09-08 21:55:00,
2013-09-08 17:00:00,93.9,68.0,29.92,SE,135,1.2,2.6,43,0.00,OVC,,0.00,20.0,WeatherDisplay:10.37,2013-09-08 22:00:00,
2013-09-08 17:05:00,94.3,67.7,29.92,ESE,112,3.8,3.8,42,0.00,OVC,,0.00,20.0,WeatherDisplay:10.37,2013-09-08 22:05:00,
2013-09-08 17:10:00,94.3,67.7,29.91,ESE,112,6.9,6.9,42,0.00,OVC,,0.00,20.0,WeatherDisplay:10.37,2013-09-08 22:10:00,
2013-09-08 17:15:00,94.5,67.8,29.91,SE,135,8.1,8.1,42,0.00,OVC,,0.00,20.0,WeatherDisplay:10.37,2013-09-08 22:15:00,
2013-09-08 17:20:00,94.5,67.8,29.91,ESE,112,5.4,5.4,42,0.00,OVC,,0.00,20.0,WeatherDisplay:10.37,2013-09-08 22:20:00,
2013-09-08 17:25:00,94.1,66.8,29.91,ESE,112,5.8,5.8,41,0.00,OVC,,0.00,10.0,WeatherDisplay:10.37,2013-09-08 22:25:00,
2013-09-08 17:30:00,93.9,67.3,29.91,SE,135,3.5,4.0,42,0.00,OVC,,0.00,10.0,WeatherDisplay:10.37,2013-09-08 22:30:00,
2013-09-08 17:35:00,94.1,66.8,29.91,SE,135,5.8,5.8,41,0.00,OVC,,0.00,10.0,WeatherDisplay:10.37,2013-09-08 22:35:00,
2013-09-08 17:40:00,94.1,66.8,29.91,SE,135,6.9,6.9,41,0.00,OVC,,0.00,10.0,WeatherDisplay:10.37,2013-09-08 22:40:00,
2013-09-08 17:45:00,93.9,66.6,29.91,ESE,112,5.8,5.8,41,0.00,OVC,,0.00,10.0,WeatherDisplay:10.37,2013-09-08 22:45:00,
2013-09-08 17:50:00,93.6,67.0,29.92,ESE,112,7.9,7.9,42,0.00,OVC,,0.00,10.0,WeatherDisplay:10.37,2013-09-08 22:50:00,
2013-09-08 17:55:00,93.6,66.3,29.92,ESE,112,4.8,4.8,41,0.00,OVC,,0.00,10.0,WeatherDisplay:10.37,2013-09-08 22:55:00,
2013-09-08 18:00:00,93.7,66.5,29.92,ESE,112,4.6,4.7,41,0.00,OVC,,0.00,10.0,WeatherDisplay:10.37,2013-09-08 23:00:00,
2013-09-08 18:05:00,93.7,66.5,29.92,ESE,112,6.9,6.9,41,0.00,OVC,,0.00,10.0,WeatherDisplay:10.37,2013-09-08 23:05:00,
2013-09-08 18:10:00,93.7,67.2,29.91,ESE,112,5.8,5.8,42,0.00,OVC,,0.00,10.0,WeatherDisplay:10.37,2013-09-08 23:10:00,
2013-09-08 18:15:00,93.7,67.2,29.91,SE,135,8.1,8.1,42,0.00,OVC,,0.00,10.0,WeatherDisplay:10.37,2013-09-08 23:15:00,
2013-09-08 18:20:00,93.4,66.9,29.91,SSE,158,4.6,5.3,42,0.00,OVC,,0.00,10.0,WeatherDisplay:10.37,2013-09-08 23:20:00,
2013-09-08 18:25:00,93.2,66.7,29.91,SE,135,6.9,6.9,42,0.00,OVC,,0.00,10.0,WeatherDisplay:10.37,2013-09-08 23:25:00,
2013-09-08 18:30:00,93.0,66.5,29.91,SE,135,4.6,4.6,42,0.00,OVC,,0.00,0.0,WeatherDisplay:10.37,2013-09-08 23:30:00,
2013-09-08 18:35:00,92.8,66.4,29.91,SE,135,8.1,8.1,42,0.00,OVC,,0.00,0.0,WeatherDisplay:10.37,2013-09-08 23:35:00,
2013-09-08 18:40:00,93.0,67.2,29.91,East,90,3.5,3.5,43,0.00,OVC,,0.00,0.0,WeatherDisplay:10.37,2013-09-08 23:40:00,
2013-09-08 18:45:00,93.0,67.2,29.91,ESE,112,8.1,8.1,43,0.00,OVC,,0.00,0.0,WeatherDisplay:10.37,2013-09-08 23:45:00,
2013-09-08 18:50:00,93.0,66.5,29.91,SE,135,5.8,5.8,42,0.00,OVC,,0.00,0.0,WeatherDisplay:10.37,2013-09-08 23:50:00,
2013-09-08 18:55:00,92.8,67.1,29.91,SE,135,5.8,5.8,43,0.00,OVC,,0.00,0.0,WeatherDisplay:10.37,2013-09-08 23:55:00,
2013-09-08 19:00:00,92.8,66.4,29.91,ESE,112,6.9,6.9,42,0.00,OVC,,0.00,0.0,WeatherDisplay:10.37,2013-09-09 00:00:00,
2013-09-08 19:05:00,92.7,66.2,29.91,SE,135,7.4,7.4,42,0.00,OVC,,0.00,0.0,WeatherDisplay:10.37,2013-09-09 00:05:00,
2013-09-08 19:10:00,92.7,66.2,29.91,ESE,112,6.9,6.9,42,0.00,OVC,,0.00,0.0,WeatherDisplay:10.37,2013-09-09 00:10:00,
2013-09-08 19:15:00,92.5,65.4,29.91,NNW,338,6.9,6.9,41,0.00,OVC,,0.00,0.0,WeatherDisplay:10.37,2013-09-09 00:15:00,
2013-09-08 19:20:00,92.3,65.2,29.91,East,90,6.9,6.9,41,0.00,OVC,,0.00,0.0,WeatherDisplay:10.37,2013-09-09 00:20:00,
2013-09-08 19:25:00,92.1,65.7,29.91,SE,135,6.9,6.9,42,0.00,OVC,,0.00,0.0,WeatherDisplay:10.37,2013-09-09 00:25:00,
2013-09-08 19:30:00,91.9,65.6,29.91,ESE,112,5.8,5.8,42,0.00,OVC,,0.00,0.0,WeatherDisplay:10.37,2013-09-09 00:30:00,
2013-09-08 19:35:00,91.9,65.6,29.91,ESE,112,6.9,6.9,42,0.00,OVC,,0.00,0.0,WeatherDisplay:10.37,2013-09-09 00:35:00,
2013-09-08 19:40:00,91.8,65.4,29.91,ESE,112,6.9,6.9,42,0.00,OVC,,0.00,0.0,WeatherDisplay:10.37,2013-09-09 00:40:00,
2013-09-08 19:45:00,91.9,66.2,29.91,ESE,112,4.6,4.6,43,0.00,OVC,,0.00,0.0,WeatherDisplay:10.37,2013-09-09 00:45:00,
2013-09-08 19:50:00,91.6,65.9,29.93,ESE,112,3.5,3.5,43,0.00,OVC,,0.00,0.0,WeatherDisplay:10.37,2013-09-09 00:50:00,
2013-09-08 19:55:00,91.6,65.9,29.93,ESE,112,4.6,4.6,43,0.00,OVC,,0.00,0.0,WeatherDisplay:10.37,2013-09-09 00:55:00,
2013-09-08 20:00:00,91.2,65.6,29.93,ESE,112,4.6,4.6,43,0.00,CLR,,0.00,0.0,WeatherDisplay:10.37,2013-09-09 01:00:00,
2013-09-08 20:05:00,91.2,65.6,29.93,SE,135,3.5,3.8,43,0.00,CLR,,0.00,0.0,WeatherDisplay:10.37,2013-09-09 01:05:00,
2013-09-08 20:10:00,91.0,65.4,29.93,SE,135,4.6,4.6,43,0.00,CLR,,0.00,0.0,WeatherDisplay:10.37,2013-09-09 01:10:00,
2013-09-08 20:15:00,90.9,65.3,29.93,East,90,4.6,4.6,43,0.00,CLR,,0.00,0.0,WeatherDisplay:10.37,2013-09-09 01:15:00,
2013-09-08 20:20:00,90.7,65.8,29.93,SE,135,3.7,3.7,44,0.00,CLR,,0.00,0.0,WeatherDisplay:10.37,2013-09-09 01:20:00,
2013-09-08 20:25:00,90.7,65.8,29.93,ESE,112,4.6,4.6,44,0.00,CLR,,0.00,0.0,WeatherDisplay:10.37,2013-09-09 01:25:00,
2013-09-08 20:30:00,90.3,65.4,29.94,ESE,112,4.7,4.7,44,0.00,CLR,,0.00,0.0,WeatherDisplay:10.37,2013-09-09 01:30:00,
2013-09-08 20:35:00,90.3,65.4,29.94,ESE,112,3.5,3.5,44,0.00,CLR,,0.00,0.0,WeatherDisplay:10.37,2013-09-09 01:35:00,
2013-09-08 20:40:00,90.1,65.9,29.94,ESE,112,3.9,3.9,45,0.00,CLR,,0.00,0.0,WeatherDisplay:10.37,2013-09-09 01:40:00,
2013-09-08 20:45:00,90.1,65.9,29.94,ESE,112,4.6,4.6,45,0.00,CLR,,0.00,0.0,WeatherDisplay:10.37,2013-09-09 01:45:00,
2013-09-08 20:50:00,89.8,65.6,29.94,SE,135,2.6,2.9,45,0.00,CLR,,0.00,0.0,WeatherDisplay:10.37,2013-09-09 01:50:00,
2013-09-08 20:55:00,89.6,65.4,29.94,ESE,112,4.6,4.6,45,0.00,CLR,,0.00,0.0,WeatherDisplay:10.37,2013-09-09 01:55:00,
2013-09-08 21:00:00,89.8,65.6,29.94,ESE,112,3.5,3.5,45,0.00,CLR,,0.00,0.0,WeatherDisplay:10.37,2013-09-09 02:00:00,
2013-09-08 21:05:00,89.4,65.3,29.94,SSE,158,4.6,4.6,45,0.00,CLR,,0.00,0.0,WeatherDisplay:10.37,2013-09-09 02:05:00,
2013-09-08 21:10:00,89.4,65.3,29.94,SE,135,1.2,1.8,45,0.00,CLR,,0.00,0.0,WeatherDisplay:10.37,2013-09-09 02:10:00,
2013-09-08 21:15:00,89.1,65.6,29.94,SE,135,3.5,3.5,46,0.00,CLR,,0.00,0.0,WeatherDisplay:10.37,2013-09-09 02:15:00,
2013-09-08 21:20:00,89.1,65.6,29.94,SSE,158,3.5,3.5,46,0.00,CLR,,0.00,0.0,WeatherDisplay:10.37,2013-09-09 02:20:00,
2013-09-08 21:26:00,88.9,65.4,29.94,SE,135,4.6,4.6,46,0.00,CLR,,0.00,0.0,WeatherDisplay:10.37,2013-09-09 02:26:00,
2013-09-08 21:31:00,88.7,65.3,29.95,SE,135,3.5,3.5,46,0.00,CLR,,0.00,0.0,WeatherDisplay:10.37,2013-09-09 02:31:00,
2013-09-08 21:36:00,88.7,65.3,29.95,SE,135,3.5,3.5,46,0.00,CLR,,0.00,0.0,WeatherDisplay:10.37,2013-09-09 02:36:00,
2013-09-08 21:41:00,88.3,64.9,29.95,ESE,112,3.5,3.5,46,0.00,CLR,,0.00,0.0,WeatherDisplay:10.37,2013-09-09 02:41:00,
2013-09-08 21:46:00,88.3,64.9,29.95,SSE,158,2.5,2.6,46,0.00,CLR,,0.00,0.0,WeatherDisplay:10.37,2013-09-09 02:46:00,
2013-09-08 21:51:00,88.2,64.8,29.96,SE,135,4.6,4.6,46,0.00,CLR,,0.00,0.0,WeatherDisplay:10.37,2013-09-09 02:51:00,
2013-09-08 21:56:00,88.2,64.8,29.96,SSE,158,3.5,3.5,46,0.00,CLR,,0.00,0.0,WeatherDisplay:10.37,2013-09-09 02:56:00,
2013-09-08 22:01:00,88.0,64.6,29.96,SE,135,3.5,3.5,46,0.00,CLR,,0.00,0.0,WeatherDisplay:10.37,2013-09-09 03:01:00,
2013-09-08 22:06:00,87.8,65.1,29.96,SE,135,2.3,2.6,47,0.00,CLR,,0.00,0.0,WeatherDisplay:10.37,2013-09-09 03:06:00,
2013-09-08 22:11:00,87.6,64.9,29.95,SSE,158,4.6,4.6,47,0.00,CLR,,0.00,0.0,WeatherDisplay:10.37,2013-09-09 03:11:00,
2013-09-08 22:16:00,87.6,64.9,29.95,SSE,158,3.5,3.5,47,0.00,CLR,,0.00,0.0,WeatherDisplay:10.37,2013-09-09 03:16:00,
2013-09-08 22:21:00,87.6,64.9,29.95,South,180,5.8,5.8,47,0.00,CLR,,0.00,0.0,WeatherDisplay:10.37,2013-09-09 03:21:00,
2013-09-08 22:26:00,87.4,64.7,29.95,SSE,158,4.6,4.6,47,0.00,CLR,,0.00,0.0,WeatherDisplay:10.37,2013-09-09 03:26:00,
2013-09-08 22:31:00,87.3,64.6,29.95,SSE,158,4.8,4.8,47,0.00,CLR,,0.00,0.0,WeatherDisplay:10.37,2013-09-09 03:31:00,
2013-09-08 22:36:00,87.1,64.4,29.95,WSW,248,3.5,3.5,47,0.00,CLR,,0.00,0.0,WeatherDisplay:10.37,2013-09-09 03:36:00,
2013-09-08 22:41:00,87.1,64.4,29.95,East,90,4.6,4.6,47,0.00,CLR,,0.00,0.0,WeatherDisplay:10.37,2013-09-09 03:41:00,
2013-09-08 22:46:00,86.9,64.8,29.95,SE,135,6.1,6.1,48,0.00,CLR,,0.00,0.0,WeatherDisplay:10.37,2013-09-09 03:46:00,
2013-09-08 22:51:00,86.7,64.7,29.97,South,180,8.1,8.1,48,0.00,CLR,,0.00,0.0,WeatherDisplay:10.37,2013-09-09 03:51:00,
2013-09-08 22:56:00,86.5,64.5,29.97,SSE,158,4.6,4.6,48,0.00,CLR,,0.00,0.0,WeatherDisplay:10.37,2013-09-09 03:56:00,
2013-09-08 23:01:00,86.4,64.9,29.97,SSE,158,4.6,4.6,49,0.00,CLR,,0.00,0.0,WeatherDisplay:10.37,2013-09-09 04:01:00,
2013-09-08 23:06:00,86.2,65.4,29.97,ESE,112,3.5,3.5,50,0.00,CLR,,0.00,0.0,WeatherDisplay:10.37,2013-09-09 04:06:00,
2013-09-08 23:11:00,86.2,65.4,29.97,SE,135,4.6,4.6,50,0.00,CLR,,0.00,0.0,WeatherDisplay:10.37,2013-09-09 04:11:00,
2013-09-08 23:16:00,86.0,65.8,29.97,NNW,338,3.5,3.5,51,0.00,CLR,,0.00,0.0,WeatherDisplay:10.37,2013-09-09 04:16:00,
2013-09-08 23:21:00,85.6,65.4,29.97,SSW,202,2.3,2.3,51,0.00,CLR,,0.00,0.0,WeatherDisplay:10.37,2013-09-09 04:21:00,
2013-09-08 23:26:00,85.6,66.5,29.97,SSW,202,3.5,3.5,53,0.00,CLR,,0.00,0.0,WeatherDisplay:10.37,2013-09-09 04:26:00,
2013-09-08 23:31:00,85.5,66.4,29.97,ENE,68,5.8,5.8,53,0.00,CLR,,0.00,0.0,WeatherDisplay:10.37,2013-09-09 04:31:00,
2013-09-08 23:36:00,85.3,67.3,29.97,SSE,158,5.8,5.8,55,0.00,CLR,,0.00,0.0,WeatherDisplay:10.37,2013-09-09 04:36:00,
2013-09-08 23:41:00,85.3,67.3,29.97,South,180,3.5,3.5,55,0.00,CLR,,0.00,0.0,WeatherDisplay:10.37,2013-09-09 04:41:00,
2013-09-08 23:46:00,85.5,68.0,29.97,SSE,158,4.1,4.1,56,0.00,CLR,,0.00,0.0,WeatherDisplay:10.37,2013-09-09 04:46:00,
2013-09-08 23:51:00,85.3,67.8,29.98,SSE,158,2.3,2.3,56,0.00,CLR,,0.00,0.0,WeatherDisplay:10.37,2013-09-09 04:51:00,
2013-09-08 23:56:00,84.9,67.5,29.98,SE,135,3.2,3.2,56,0.00,CLR,,0.00,0.0,WeatherDisplay:10.37,2013-09-09 04:56:00,